createdAt,value
2023-03-26T00:00:54.253Z,70.35
2023-03-26T00:03:57.831Z,70.74
2023-03-26T00:07:00.171Z,70.03
2023-03-26T00:10:03.600Z,70.21
2023-03-26T00:13:06.327Z,70.22
2023-03-26T00:16:08.829Z,70.54
2023-03-26T00:19:11.661Z,70.90
2023-03-26T00:22:16.983Z,71.03
2023-03-26T00:25:20.399Z,71.83
2023-03-26T00:28:23.517Z,71.56
2023-03-26T00:31:25.837Z,72.15
2023-03-26T00:34:28.191Z,72.73
2023-03-26T00:37:30.398Z,72.78
2023-03-26T00:40:36.741Z,71.84
2023-03-26T00:43:38.854Z,71.57
2023-03-26T00:46:41.575Z,71.43
2023-03-26T00:49:46.783Z,72.52
2023-03-26T00:52:49.155Z,71.98
2023-03-26T00:55:51.632Z,71.83
2023-03-26T00:58:54.244Z,71.61
2023-03-26T01:01:58.379Z,71.24
2023-03-26T01:05:04.139Z,70.80
2023-03-26T01:08:25.619Z,71.27
2023-03-26T01:11:29.814Z,71.03
2023-03-26T01:14:31.790Z,71.62
2023-03-26T01:17:34.318Z,71.46
2023-03-26T01:20:39.265Z,71.17
2023-03-26T01:23:44.368Z,70.79
2023-03-26T01:26:49.408Z,71.17
2023-03-26T01:29:53.188Z,71.27
2023-03-26T01:33:02.286Z,71.42
2023-03-26T01:36:21.207Z,71.16
2023-03-26T01:39:27.947Z,70.60
2023-03-26T01:42:30.884Z,70.38
2023-03-26T01:45:36.060Z,70.39
2023-03-26T01:48:40.766Z,70.52
2023-03-26T01:51:42.914Z,70.45
2023-03-26T01:54:46.713Z,70.48
2023-03-26T01:57:58.274Z,71.11
2023-03-26T02:01:06.329Z,71.32
2023-03-26T02:04:22.662Z,70.98
2023-03-26T02:07:44.614Z,70.69
2023-03-26T02:10:49.018Z,70.46
2023-03-26T02:13:51.817Z,70.58
2023-03-26T02:16:53.896Z,70.94
2023-03-26T02:19:57.072Z,70.63
2023-03-26T02:22:59.791Z,70.09
2023-03-26T02:26:05.225Z,70.15
2023-03-26T02:29:07.765Z,70.13
2023-03-26T02:32:13.781Z,70.39
2023-03-26T02:35:16.055Z,70.97
2023-03-26T02:38:19.500Z,70.46
2023-03-26T02:41:21.595Z,70.64
2023-03-26T02:44:24.450Z,71.44
2023-03-26T02:47:33.945Z,71.15
2023-03-26T02:50:39.425Z,71.50
2023-03-26T02:53:43.995Z,71.27
2023-03-26T02:56:47.159Z,71.31
2023-03-26T02:59:50.452Z,71.67
2023-03-26T03:02:57.852Z,71.61
2023-03-26T03:06:01.250Z,71.99
2023-03-26T03:09:05.225Z,72.47
2023-03-26T03:12:08.631Z,72.42
2023-03-26T03:15:11.373Z,72.46
2023-03-26T03:18:13.414Z,72.67
2023-03-26T03:21:15.798Z,73.05
2023-03-26T03:24:18.580Z,72.69
2023-03-26T03:27:22.283Z,73.25
2023-03-26T03:30:24.605Z,73.22
2023-03-26T03:33:29.104Z,73.26
2023-03-26T03:36:33.109Z,73.67
2023-03-26T03:39:36.232Z,74.12
2023-03-26T03:42:38.849Z,73.59
2023-03-26T03:45:41.437Z,74.08
2023-03-26T03:48:48.294Z,73.41
2023-03-26T03:51:50.947Z,73.94
2023-03-26T03:54:54.185Z,74.16
2023-03-26T03:57:58.289Z,73.80
2023-03-26T04:01:04.439Z,74.15
2023-03-26T04:04:08.617Z,73.37
2023-03-26T04:07:12.855Z,74.09
2023-03-26T04:10:17.137Z,73.73
2023-03-26T04:13:22.514Z,74.36
2023-03-26T04:16:25.641Z,74.78
2023-03-26T04:19:27.891Z,74.76
2023-03-26T04:22:34.593Z,75.16
2023-03-26T04:25:37.738Z,75.23
2023-03-26T04:28:48.911Z,76.12
2023-03-26T04:31:58.600Z,76.78
2023-03-26T04:35:03.945Z,77.30
2023-03-26T04:38:06.955Z,77.03
2023-03-26T04:41:11.396Z,76.66
2023-03-26T04:44:17.202Z,75.98
2023-03-26T04:47:21.004Z,75.90
2023-03-26T04:50:23.153Z,75.71
2023-03-26T04:53:26.334Z,74.94
2023-03-26T04:56:39.113Z,75.49
2023-03-26T04:59:42.984Z,74.75
2023-03-26T05:02:45.906Z,74.74
2023-03-26T05:05:49.659Z,73.79
2023-03-26T05:08:51.890Z,72.28
2023-03-26T05:11:55.580Z,71.49
2023-03-26T05:15:00.775Z,70.33
2023-03-26T05:18:04.116Z,69.49
2023-03-26T05:21:06.749Z,67.39
2023-03-26T05:24:09.252Z,65.53
2023-03-26T05:27:16.854Z,63.97
2023-03-26T05:30:20.760Z,61.79
2023-03-26T05:33:24.573Z,62.33
2023-03-26T05:36:28.489Z,62.78
2023-03-26T05:39:33.087Z,64.74
2023-03-26T05:42:36.199Z,61.92
2023-03-26T05:45:39.537Z,57.38
2023-03-26T05:48:43.526Z,58.03
2023-03-26T05:51:45.792Z,60.50
2023-03-26T05:54:49.122Z,60.30
2023-03-26T05:57:54.429Z,58.87
2023-03-26T06:01:05.547Z,58.37
2023-03-26T06:04:11.634Z,59.39
2023-03-26T06:07:15.024Z,60.16
2023-03-26T06:10:19.071Z,57.18
2023-03-26T06:13:21.546Z,52.89
2023-03-26T06:16:26.388Z,47.99
2023-03-26T06:19:29.676Z,44.01
2023-03-26T06:22:32.552Z,42.43
2023-03-26T06:25:38.521Z,41.98
2023-03-26T06:28:41.336Z,41.17
2023-03-26T06:31:44.902Z,40.93
2023-03-26T06:34:48.050Z,40.79
2023-03-26T06:37:50.356Z,38.82
2023-03-26T06:40:53.377Z,37.05
2023-03-26T06:43:56.671Z,35.46
2023-03-26T06:46:59.297Z,34.01
2023-03-26T06:50:04.412Z,33.58
2023-03-26T06:53:08.631Z,33.26
2023-03-26T06:56:10.696Z,30.59
2023-03-26T06:59:13.368Z,30.10
2023-03-26T07:02:26.493Z,28.92
2023-03-26T07:05:42.903Z,27.34
2023-03-26T07:08:45.304Z,27.88
2023-03-26T07:11:49.422Z,28.00
2023-03-26T07:14:52.651Z,28.01
2023-03-26T07:17:56.687Z,29.50
2023-03-26T07:20:59.167Z,29.40
2023-03-26T07:24:04.674Z,29.61
2023-03-26T07:27:17.717Z,29.92
2023-03-26T07:30:26.226Z,30.09
2023-03-26T07:33:46.869Z,31.34
2023-03-26T07:36:57.217Z,33.25
2023-03-26T07:40:09.395Z,35.99
2023-03-26T07:43:17.730Z,37.88
2023-03-26T07:46:25.964Z,37.87
2023-03-26T07:49:29.813Z,39.14
2023-03-26T07:52:32.673Z,39.25
2023-03-26T07:55:40.369Z,39.15
2023-03-26T07:58:50.772Z,40.73
2023-03-26T08:02:12.482Z,43.75
2023-03-26T08:05:30.417Z,44.20
2023-03-26T08:08:56.936Z,43.44
2023-03-26T08:12:05.960Z,43.84
2023-03-26T08:15:21.237Z,44.58
2023-03-26T08:18:35.153Z,45.48
2023-03-26T08:21:38.106Z,44.52
2023-03-26T08:24:47.608Z,44.83
2023-03-26T08:28:01.874Z,45.26
2023-03-26T08:31:05.435Z,45.38
2023-03-26T08:34:10.649Z,45.02
2023-03-26T08:37:13.073Z,45.78
2023-03-26T08:40:19.695Z,45.83
2023-03-26T08:43:42.304Z,45.05
2023-03-26T08:46:59.680Z,45.64
2023-03-26T08:50:17.357Z,45.15
2023-03-26T08:53:25.498Z,43.84
2023-03-26T08:56:47.388Z,44.14
2023-03-26T08:59:49.532Z,42.09
2023-03-26T09:02:51.752Z,40.00
2023-03-26T09:06:13.024Z,40.09
2023-03-26T09:09:24.425Z,39.87
2023-03-26T09:12:54.625Z,38.50
2023-03-26T09:16:15.612Z,37.99
2023-03-26T09:19:20.841Z,37.75
2023-03-26T09:22:26.364Z,37.89
2023-03-26T09:25:47.177Z,37.94
2023-03-26T09:28:55.657Z,37.28
2023-03-26T09:31:59.435Z,36.58
2023-03-26T09:35:21.618Z,37.00
2023-03-26T09:38:33.076Z,36.36
2023-03-26T09:41:41.578Z,37.59
2023-03-26T09:45:01.027Z,37.27
2023-03-26T09:48:18.885Z,37.83
2023-03-26T09:51:33.252Z,36.59
2023-03-26T09:54:44.769Z,36.87
2023-03-26T09:57:59.780Z,36.84
2023-03-26T10:01:05.636Z,38.29
2023-03-26T10:04:33.186Z,38.28
2023-03-26T10:07:41.543Z,38.58
2023-03-26T10:10:43.760Z,38.58
2023-03-26T10:14:01.270Z,39.23
2023-03-26T10:17:05.008Z,40.35
2023-03-26T10:20:22.543Z,40.23
2023-03-26T10:23:43.613Z,41.68
2023-03-26T10:27:10.220Z,49.21
2023-03-26T10:30:31.652Z,63.30
2023-03-26T10:33:50.656Z,71.35
2023-03-26T10:37:11.720Z,77.79
2023-03-26T10:40:13.736Z,90.72
2023-03-26T10:43:34.763Z,92.83
2023-03-26T10:46:55.630Z,81.41
2023-03-26T10:50:17.231Z,76.29
2023-03-26T10:53:35.880Z,82.34
2023-03-26T10:56:40.803Z,67.88
2023-03-26T10:59:42.892Z,70.66
2023-03-26T11:02:56.358Z,71.75
2023-03-26T11:06:12.202Z,72.75
2023-03-26T11:09:20.770Z,70.59
2023-03-26T11:12:29.176Z,68.57
2023-03-26T11:15:47.679Z,74.96
2023-03-26T11:18:54.670Z,84.67
2023-03-26T11:22:15.775Z,86.08
2023-03-26T11:25:26.975Z,80.91
2023-03-26T11:29:03.822Z,70.75
2023-03-26T11:32:26.094Z,74.89
2023-03-26T11:35:39.636Z,72.89
2023-03-26T11:38:44.944Z,76.48
2023-03-26T11:41:49.352Z,69.58
2023-03-26T11:45:00.816Z,64.82
2023-03-26T11:48:27.739Z,67.08
2023-03-26T11:51:33.940Z,74.89
2023-03-26T11:54:37.506Z,63.81
2023-03-26T11:57:43.120Z,69.11
2023-03-26T12:00:45.430Z,67.34
2023-03-26T12:03:58.765Z,61.16
2023-03-26T12:07:27.008Z,59.29
2023-03-26T12:10:29.422Z,66.26
2023-03-26T12:13:35.477Z,62.69
2023-03-26T12:16:37.879Z,58.21
2023-03-26T12:19:41.458Z,53.00
2023-03-26T12:22:44.324Z,59.76
2023-03-26T12:26:04.147Z,57.65
2023-03-26T12:29:11.032Z,56.50
2023-03-26T12:32:13.884Z,47.32
2023-03-26T12:35:27.612Z,53.40
2023-03-26T12:38:40.707Z,51.14
2023-03-26T12:43:51.643Z,47.90
2023-03-26T12:45:06.792Z,43.63
2023-03-26T12:48:15.639Z,43.19
2023-03-26T12:51:30.192Z,40.75
2023-03-26T12:54:33.183Z,39.75
2023-03-26T12:57:40.473Z,41.25
2023-03-26T13:00:48.748Z,39.98
2023-03-26T13:03:56.826Z,38.49
2023-03-26T13:07:06.323Z,40.42
2023-03-26T13:10:32.766Z,39.49
2023-03-26T13:13:54.280Z,39.26
2023-03-26T13:17:08.345Z,39.30
2023-03-26T13:20:15.906Z,39.38
2023-03-26T13:23:18.114Z,38.74
2023-03-26T13:26:29.382Z,39.47
2023-03-26T13:29:31.409Z,39.56
2023-03-26T13:32:39.767Z,38.76
2023-03-26T13:36:22.377Z,37.89
2023-03-26T13:39:26.154Z,36.47
2023-03-26T13:42:28.836Z,36.39
2023-03-26T13:45:54.011Z,38.89
2023-03-26T13:49:07.935Z,39.16
2023-03-26T13:52:19.296Z,38.56
2023-03-26T13:55:40.159Z,36.93
2023-03-26T13:59:01.303Z,36.47
2023-03-26T14:02:20.397Z,35.93
2023-03-26T14:05:26.224Z,35.57
2023-03-26T14:08:36.176Z,34.82
2023-03-26T14:11:44.337Z,34.14
2023-03-26T14:15:00.235Z,34.09
2023-03-26T14:18:06.155Z,34.16
2023-03-26T14:21:20.422Z,34.22
2023-03-26T14:24:28.404Z,34.65
2023-03-26T14:27:45.803Z,34.07
2023-03-26T14:31:05.900Z,34.32
2023-03-26T14:34:14.162Z,34.10
2023-03-26T14:37:38.820Z,33.68
2023-03-26T14:40:59.853Z,32.23
2023-03-26T14:44:02.143Z,31.71
2023-03-26T14:47:07.878Z,31.38
2023-03-26T14:50:20.509Z,30.81
2023-03-26T14:53:29.984Z,30.50
2023-03-26T14:56:32.390Z,31.46
2023-03-26T14:59:52.911Z,31.51
2023-03-26T15:03:14.259Z,32.66
2023-03-26T15:06:31.970Z,32.97
2023-03-26T15:09:46.256Z,32.71
2023-03-26T15:13:00.448Z,32.19
2023-03-26T15:16:21.739Z,33.43
2023-03-26T15:19:42.632Z,33.40
2023-03-26T15:22:45.368Z,34.42
2023-03-26T15:26:07.744Z,33.85
2023-03-26T15:29:30.035Z,34.20
2023-03-26T15:32:41.817Z,34.87
2023-03-26T15:35:44.178Z,35.12
2023-03-26T15:39:18.591Z,35.33
2023-03-26T15:42:29.693Z,34.92
2023-03-26T15:45:36.362Z,34.88
2023-03-26T15:48:42.304Z,36.00
2023-03-26T15:51:47.081Z,36.15
2023-03-26T15:55:01.909Z,36.27
2023-03-26T15:58:09.898Z,36.45
2023-03-26T16:01:34.045Z,37.00
2023-03-26T16:05:16.278Z,37.17
2023-03-26T16:08:21.176Z,36.90
2023-03-26T16:11:42.169Z,37.95
2023-03-26T16:14:44.162Z,37.38
2023-03-26T16:18:05.579Z,38.69
2023-03-26T16:21:31.619Z,38.91
2023-03-26T16:24:37.746Z,39.16
2023-03-26T16:27:39.767Z,39.73
2023-03-26T16:30:42.303Z,39.44
2023-03-26T16:33:49.904Z,39.44
2023-03-26T16:36:54.034Z,40.47
2023-03-26T16:40:15.942Z,42.95
2023-03-26T16:43:35.820Z,40.56
2023-03-26T16:46:52.082Z,39.91
2023-03-26T16:50:13.919Z,40.74
2023-03-26T16:53:24.805Z,41.68
2023-03-26T16:56:31.161Z,42.06
2023-03-26T17:00:04.603Z,43.70
2023-03-26T17:03:15.548Z,43.84
2023-03-26T17:06:17.682Z,43.26
2023-03-26T17:09:25.748Z,43.43
2023-03-26T17:12:32.569Z,43.86
2023-03-26T17:15:41.183Z,44.57
2023-03-26T17:18:43.667Z,45.46
2023-03-26T17:22:15.507Z,45.47
2023-03-26T17:25:21.248Z,45.23
2023-03-26T17:29:03.100Z,45.97
2023-03-26T17:32:12.435Z,45.81
2023-03-26T17:35:15.413Z,45.76
2023-03-26T17:38:17.434Z,45.67
2023-03-26T17:41:38.722Z,45.43
2023-03-26T17:44:43.445Z,46.06
2023-03-26T17:47:50.410Z,49.99
2023-03-26T17:50:55.509Z,47.02
2023-03-26T17:53:58.659Z,46.37
2023-03-26T17:57:02.956Z,47.59
2023-03-26T18:00:11.630Z,47.63
2023-03-26T18:03:16.651Z,48.76
2023-03-26T18:06:34.170Z,48.10
2023-03-26T18:09:55.089Z,48.86
2023-03-26T18:13:00.411Z,50.04
2023-03-26T18:16:09.501Z,47.42
2023-03-26T18:19:19.052Z,49.16
2023-03-26T18:22:30.309Z,48.40
2023-03-26T18:25:34.075Z,49.26
2023-03-26T18:28:40.503Z,50.58
2023-03-26T18:31:43.082Z,50.75
2023-03-26T18:34:49.901Z,52.51
2023-03-26T18:37:54.563Z,55.41
2023-03-26T18:40:56.916Z,54.39
2023-03-26T18:44:04.095Z,53.42
2023-03-26T18:47:07.141Z,53.42
2023-03-26T18:50:18.666Z,51.29
2023-03-26T18:53:22.596Z,49.99
2023-03-26T18:56:52.702Z,49.41
2023-03-26T18:59:57.429Z,48.96
2023-03-26T19:03:07.698Z,53.46
2023-03-26T19:06:12.451Z,49.04
2023-03-26T19:09:30.423Z,49.73
2023-03-26T19:12:35.651Z,52.93
2023-03-26T19:15:38.265Z,56.67
2023-03-26T19:18:40.721Z,56.57
2023-03-26T19:21:46.724Z,63.20
2023-03-26T19:24:50.384Z,58.33
2023-03-26T19:27:52.606Z,57.71
2023-03-26T19:30:57.395Z,62.79
2023-03-26T19:34:01.814Z,61.04
2023-03-26T19:37:16.193Z,62.20
2023-03-26T19:40:29.736Z,59.77
2023-03-26T19:43:31.776Z,60.73
2023-03-26T19:46:52.822Z,69.27
2023-03-26T19:49:57.630Z,68.15
2023-03-26T19:53:16.594Z,62.73
2023-03-26T19:56:21.117Z,68.10
2023-03-26T19:59:23.921Z,61.55
2023-03-26T20:02:26.575Z,62.80
2023-03-26T20:05:31.823Z,61.32
2023-03-26T20:08:33.926Z,61.94
2023-03-26T20:11:38.746Z,63.44
2023-03-26T20:14:43.208Z,66.42
2023-03-26T20:17:47.054Z,68.71
2023-03-26T20:20:50.429Z,63.47
2023-03-26T20:23:55.805Z,61.14
2023-03-26T20:26:57.998Z,59.66
2023-03-26T20:30:00.325Z,58.55
2023-03-26T20:33:13.003Z,59.25
2023-03-26T20:36:33.591Z,55.90
2023-03-26T20:39:36.978Z,58.67
2023-03-26T20:42:39.307Z,56.19
2023-03-26T20:45:41.649Z,56.78
2023-03-26T20:48:45.564Z,56.20
2023-03-26T20:51:48.847Z,58.63
2023-03-26T20:54:51.922Z,59.29
2023-03-26T20:57:55.119Z,61.01
2023-03-26T21:01:00.357Z,60.70
2023-03-26T21:04:04.311Z,60.42
2023-03-26T21:07:17.679Z,59.47
2023-03-26T21:10:20.879Z,58.12
2023-03-26T21:13:26.471Z,59.38
2023-03-26T21:16:28.673Z,63.76
2023-03-26T21:19:31.411Z,67.25
2023-03-26T21:22:40.853Z,66.86
2023-03-26T21:25:48.652Z,63.75
2023-03-26T21:28:50.831Z,59.43
2023-03-26T21:31:54.932Z,59.11
2023-03-26T21:34:59.020Z,60.81
2023-03-26T21:38:04.140Z,59.04
2023-03-26T21:41:06.352Z,62.03
2023-03-26T21:44:08.736Z,65.24
2023-03-26T21:47:11.247Z,65.99
2023-03-26T21:50:15.501Z,68.10
2023-03-26T21:53:17.566Z,69.95
2023-03-26T21:56:29.944Z,71.10
2023-03-26T21:59:52.476Z,75.71
2023-03-26T22:03:18.257Z,79.60
2023-03-26T22:06:28.341Z,80.20
2023-03-26T22:09:36.545Z,79.87
2023-03-26T22:12:39.578Z,82.70
2023-03-26T22:15:41.624Z,83.49
2023-03-26T22:18:44.156Z,83.87
2023-03-26T22:21:46.118Z,89.89
2023-03-26T22:24:48.502Z,93.64
2023-03-26T22:27:51.087Z,97.20
2023-03-26T22:30:53.632Z,98.21
2023-03-26T22:33:56.024Z,100.00
2023-03-26T22:36:58.451Z,99.97
2023-03-26T22:40:01.182Z,100.00
2023-03-26T22:43:03.494Z,100.00
2023-03-26T22:46:06.838Z,100.00
2023-03-26T22:49:09.234Z,100.00
2023-03-26T22:52:12.120Z,100.00
2023-03-26T22:55:15.684Z,100.00
2023-03-26T22:58:32.704Z,100.00
2023-03-26T23:01:35.633Z,100.00
2023-03-26T23:04:37.827Z,100.00
2023-03-26T23:07:40.246Z,100.00
2023-03-26T23:10:42.649Z,100.00
2023-03-26T23:13:46.031Z,100.00
2023-03-26T23:16:48.099Z,100.00
2023-03-26T23:19:50.425Z,100.00
2023-03-26T23:22:52.592Z,100.00
2023-03-26T23:25:56.081Z,100.00
2023-03-26T23:28:58.057Z,100.00
2023-03-26T23:32:00.458Z,100.00
2023-03-26T23:35:02.403Z,100.00
2023-03-26T23:38:06.754Z,100.00
2023-03-26T23:41:08.711Z,100.00
2023-03-26T23:44:14.333Z,100.00
2023-03-26T23:47:17.190Z,100.00
2023-03-26T23:50:19.508Z,100.00
2023-03-26T23:53:25.338Z,100.00
2023-03-26T23:56:29.623Z,100.00
2023-03-26T23:59:32.368Z,100.00
